Time;durP1;ratioP1;P1;durP2;ratioP2;P2;SDS_P1;SDS_P2;PMS_P1;PMS_P2;Temp;Humidity;BMP_temperature;BMP_pressure;BME280_temperature;BME280_humidity;BME280_pressure;Samples;Min_cycle;Max_cycle;Signal;HPM_P1;HPM_P2
2021/04/29 00:01:51;;;;;;;24.30;15.52;;;9.50;55.30;;;;;;5033354;28;20033;-65
2021/04/29 00:04:17;;;;;;;28.50;15.85;;;9.50;55.40;;;;;;5034444;28;20075;-66
2021/04/29 00:06:43;;;;;;;22.85;15.43;;;9.50;55.50;;;;;;5015164;28;20382;-66
2021/04/29 00:09:10;;;;;;;26.08;16.55;;;9.40;55.60;;;;;;5014776;28;20041;-66
2021/04/29 00:11:35;;;;;;;24.17;15.73;;;9.40;55.80;;;;;;5015619;28;20026;-65
2021/04/29 00:14:02;;;;;;;26.63;16.17;;;9.30;56.00;;;;;;5014019;28;20036;-66
2021/04/29 00:16:28;;;;;;;25.90;16.27;;;9.30;56.20;;;;;;5014026;28;20393;-66
2021/04/29 00:18:53;;;;;;;23.23;15.80;;;9.20;56.40;;;;;;5014229;28;20018;-66
2021/04/29 00:21:20;;;;;;;25.10;14.98;;;9.20;56.50;;;;;;5014015;28;20045;-65
2021/04/29 00:23:45;;;;;;;26.83;17.27;;;9.10;56.70;;;;;;5017373;28;20049;-66
2021/04/29 00:26:11;;;;;;;24.25;16.35;;;9.10;56.90;;;;;;5014423;28;20056;-65
2021/04/29 00:28:37;;;;;;;24.77;16.65;;;9.00;56.80;;;;;;5022471;28;20473;-65
2021/04/29 00:31:03;;;;;;;23.73;14.65;;;9.00;57.20;;;;;;5016055;28;20029;-65
2021/04/29 00:33:29;;;;;;;22.38;14.68;;;8.90;57.30;;;;;;5033980;28;20044;-66
2021/04/29 00:35:54;;;;;;;21.05;15.32;;;8.90;57.30;;;;;;5032367;28;20389;-65
2021/04/29 00:38:20;;;;;;;26.30;15.57;;;8.90;57.50;;;;;;5033481;28;20432;-65
2021/04/29 00:40:46;;;;;;;23.95;15.55;;;8.80;57.30;;;;;;5033468;28;20022;-65
2021/04/29 00:43:13;;;;;;;22.95;15.80;;;8.80;57.80;;;;;;5033646;28;20072;-65
2021/04/29 00:45:40;;;;;;;25.40;15.80;;;8.90;58.10;;;;;;5033662;28;20049;-65
2021/04/29 00:48:06;;;;;;;24.10;15.52;;;8.90;58.50;;;;;;5037094;28;20465;-66
2021/04/29 00:50:31;;;;;;;23.27;16.25;;;9.00;58.80;;;;;;5053293;28;20032;-66
2021/04/29 00:52:57;;;;;;;23.80;16.83;;;9.00;58.60;;;;;;5053172;28;20384;-65
2021/04/29 00:55:23;;;;;;;24.02;16.42;;;9.00;58.50;;;;;;5053211;28;20021;-66
2021/04/29 00:57:49;;;;;;;24.25;15.77;;;9.00;58.70;;;;;;5053343;28;20175;-66
2021/04/29 01:00:15;;;;;;;21.30;14.80;;;9.00;58.50;;;;;;5053340;28;20380;-66
2021/04/29 01:02:48;;;;;;;23.13;15.25;;;9.00;58.70;;;;;;5033855;28;20041;-66
2021/04/29 01:05:27;;;;;;;23.73;14.98;;;9.00;58.80;;;;;;5022973;28;20108;-66
2021/04/29 01:08:01;;;;;;;20.67;14.13;;;8.90;58.90;;;;;;5013444;28;20377;-65
2021/04/29 01:10:33;;;;;;;20.85;14.07;;;8.90;59.00;;;;;;5013445;28;20033;-65
2021/04/29 01:13:02;;;;;;;19.05;13.57;;;8.90;58.90;;;;;;5013642;28;20033;-65
2021/04/29 01:15:27;;;;;;;17.73;13.15;;;8.80;59.00;;;;;;5017102;28;20033;-65
2021/04/29 01:17:54;;;;;;;16.65;12.40;;;8.80;59.30;;;;;;5013686;28;20026;-65
2021/04/29 01:20:41;;;;;;;18.30;12.88;;;8.80;59.30;;;;;;5013519;28;20014;-65
2021/04/29 01:23:20;;;;;;;18.95;12.65;;;8.70;59.60;;;;;;5013968;28;20351;-66
2021/04/29 01:25:54;;;;;;;18.45;12.88;;;8.60;59.60;;;;;;5014271;28;20056;-66
2021/04/29 01:28:20;;;;;;;17.88;11.55;;;8.60;59.60;;;;;;5013798;28;20030;-66
2021/04/29 01:30:46;;;;;;;15.13;11.18;;;8.60;59.70;;;;;;5014169;28;20125;-66
2021/04/29 01:33:12;;;;;;;16.05;11.55;;;8.60;59.90;;;;;;5013829;28;20105;-66
2021/04/29 01:35:38;;;;;;;17.60;12.00;;;8.60;60.00;;;;;;5007965;28;20034;-66
2021/04/29 01:38:04;;;;;;;16.83;11.18;;;8.50;60.00;;;;;;5013432;28;20377;-65
2021/04/29 01:40:31;;;;;;;21.70;13.32;;;8.50;60.10;;;;;;5013639;28;20101;-66
2021/04/29 01:42:58;;;;;;;18.35;12.75;;;8.50;60.20;;;;;;5013221;28;20022;-66
2021/04/29 01:45:24;;;;;;;17.20;12.57;;;8.50;60.20;;;;;;5013196;28;20030;-66
2021/04/29 01:47:50;;;;;;;19.67;12.40;;;8.60;60.20;;;;;;5014604;28;20026;-66
2021/04/29 01:50:15;;;;;;;19.10;12.35;;;8.50;60.10;;;;;;5032986;28;20025;-65
2021/04/29 01:52:42;;;;;;;17.05;12.18;;;8.50;60.30;;;;;;5032588;28;20111;-65
2021/04/29 01:55:08;;;;;;;17.70;12.10;;;8.50;60.50;;;;;;5033165;28;20056;-66
2021/04/29 01:57:34;;;;;;;17.55;12.45;;;8.50;60.40;;;;;;5033086;28;20477;-65
2021/04/29 02:00:01;;;;;;;17.92;11.98;;;8.50;60.40;;;;;;5014952;28;20033;-65
2021/04/29 02:02:26;;;;;;;20.42;12.63;;;8.40;60.60;;;;;;5032565;28;20527;-66
2021/04/29 02:04:52;;;;;;;17.98;12.15;;;8.40;60.80;;;;;;5025073;28;20061;-66
2021/04/29 02:07:19;;;;;;;17.08;11.85;;;8.40;61.00;;;;;;5021536;28;20243;-65
2021/04/29 02:09:45;;;;;;;17.67;11.80;;;8.30;61.00;;;;;;5036417;28;20029;-66
2021/04/29 02:12:11;;;;;;;17.35;12.15;;;8.30;61.30;;;;;;5036461;28;20091;-65
2021/04/29 02:14:52;;;;;;;13.95;11.50;;;8.30;61.10;;;;;;5036564;28;20128;-66
2021/04/29 02:17:45;;;;;;;16.88;12.23;;;8.30;61.20;;;;;;5036601;28;20018;-66
2021/04/29 02:20:14;;;;;;;19.52;11.98;;;8.30;61.10;;;;;;5036640;28;20022;-66
2021/04/29 02:22:41;;;;;;;15.88;12.02;;;8.30;61.10;;;;;;5033593;28;20013;-65
2021/04/29 02:25:10;;;;;;;24.30;19.95;;;8.30;61.50;;;;;;5035445;28;20045;-66
2021/04/29 02:27:38;;;;;;;32.17;25.25;;;8.30;61.10;;;;;;5036238;28;20026;-66
2021/04/29 02:30:12;;;;;;;27.95;20.73;;;8.40;61.00;;;;;;5036317;28;20108;-65
2021/04/29 02:32:38;;;;;;;22.42;18.05;;;8.40;60.90;;;;;;5036523;28;20026;-66
2021/04/29 02:35:07;;;;;;;14.30;11.95;;;8.50;60.90;;;;;;5025163;28;20424;-66
2021/04/29 02:37:33;;;;;;;16.80;13.68;;;8.50;61.00;;;;;;5016458;28;20022;-66
2021/04/29 02:40:00;;;;;;;18.80;16.80;;;8.60;60.90;;;;;;5016294;28;20455;-66
2021/04/29 02:42:26;;;;;;;18.88;15.07;;;8.60;60.80;;;;;;5016265;28;20105;-66
2021/04/29 02:44:52;;;;;;;17.05;14.07;;;8.70;61.10;;;;;;5016401;28;20149;-66
2021/04/29 02:47:18;;;;;;;14.25;11.15;;;8.70;60.80;;;;;;5016036;28;20485;-66
2021/04/29 02:49:43;;;;;;;13.27;9.23;;;8.80;60.90;;;;;;5049711;28;20047;-66
2021/04/29 02:52:10;;;;;;;12.45;10.20;;;8.90;60.90;;;;;;5055367;28;20127;-65
2021/04/29 02:54:36;;;;;;;12.18;10.40;;;8.90;60.90;;;;;;5024914;28;20552;-66
2021/04/29 02:57:02;;;;;;;12.30;9.57;;;8.90;60.80;;;;;;5015956;28;20160;-65
2021/04/29 02:59:28;;;;;;;16.13;11.43;;;9.00;60.80;;;;;;5015783;28;20088;-65
2021/04/29 03:01:53;;;;;;;17.00;11.07;;;9.10;61.10;;;;;;5021491;28;20036;-66
2021/04/29 03:04:19;;;;;;;13.05;10.55;;;9.10;61.00;;;;;;5030978;28;20088;-66
2021/04/29 03:06:45;;;;;;;14.38;10.45;;;9.20;60.90;;;;;;5015481;28;20038;-66
2021/04/29 03:09:10;;;;;;;13.43;10.45;;;9.30;61.00;;;;;;5015846;28;20030;-66
2021/04/29 03:11:36;;;;;;;14.57;11.05;;;9.40;61.10;;;;;;5015595;28;20049;-66
2021/04/29 03:14:03;;;;;;;15.32;11.07;;;9.50;61.90;;;;;;5015912;28;20034;-66
2021/04/29 03:16:29;;;;;;;13.73;11.13;;;9.60;61.30;;;;;;5015310;28;20096;-66
2021/04/29 03:18:54;;;;;;;14.55;10.40;;;9.70;61.30;;;;;;5014619;28;20391;-66
2021/04/29 03:21:20;;;;;;;15.63;10.32;;;9.80;61.20;;;;;;5015206;28;20032;-66
2021/04/29 03:23:46;;;;;;;10.80;9.65;;;9.90;61.10;;;;;;5016385;28;20101;-65
2021/04/29 03:26:12;;;;;;;11.52;9.27;;;10.00;61.40;;;;;;5016503;28;20414;-66
2021/04/29 03:28:37;;;;;;;15.40;10.93;;;10.20;61.50;;;;;;5024051;28;20029;-65
2021/04/29 03:31:03;;;;;;;14.35;10.20;;;10.30;61.40;;;;;;5035353;28;20116;-66
2021/04/29 03:33:28;;;;;;;12.68;10.18;;;10.50;61.50;;;;;;5036251;28;20029;-66
2021/04/29 03:35:54;;;;;;;16.15;11.13;;;10.70;61.60;;;;;;5034323;28;20425;-65
2021/04/29 03:38:20;;;;;;;15.45;11.00;;;10.80;61.50;;;;;;5035317;28;20033;-66
2021/04/29 03:40:45;;;;;;;11.23;9.88;;;11.00;61.60;;;;;;5035012;28;20030;-66
2021/04/29 03:43:11;;;;;;;13.68;11.25;;;11.20;61.90;;;;;;5034734;28;20547;-66
2021/04/29 03:45:37;;;;;;;14.18;10.18;;;11.40;61.60;;;;;;5035748;28;20036;-66
2021/04/29 03:48:03;;;;;;;17.15;11.48;;;11.50;61.50;;;;;;5032167;28;20024;-64
2021/04/29 03:50:29;;;;;;;15.68;11.85;;;11.70;61.30;;;;;;5015810;28;20026;-64
2021/04/29 03:52:55;;;;;;;14.25;11.02;;;11.80;61.20;;;;;;5015039;28;20489;-65
2021/04/29 03:55:21;;;;;;;16.42;11.90;;;12.00;61.10;;;;;;5015945;28;20033;-65
2021/04/29 03:57:47;;;;;;;15.00;11.98;;;12.30;61.60;;;;;;5016219;28;20029;-66
2021/04/29 04:00:14;;;;;;;14.68;12.10;;;12.50;61.50;;;;;;5017428;28;20026;-65
2021/04/29 04:02:40;;;;;;;14.90;11.50;;;12.90;61.60;;;;;;5017534;28;20046;-64
2021/04/29 04:05:07;;;;;;;15.98;11.65;;;13.40;61.00;;;;;;5020888;28;20504;-64
2021/04/29 04:07:33;;;;;;;14.00;10.90;;;13.90;60.30;;;;;;5016665;28;20041;-67
2021/04/29 04:09:59;;;;;;;13.50;11.02;;;14.50;59.60;;;;;;5016123;28;20113;-66
2021/04/29 04:12:24;;;;;;;13.15;11.10;;;15.20;58.50;;;;;;5016012;28;20037;-64
2021/04/29 04:14:50;;;;;;;11.77;9.98;;;15.90;57.20;;;;;;5015457;28;20385;-66
2021/04/29 04:17:16;;;;;;;12.02;10.02;;;16.60;56.10;;;;;;5015611;28;20026;-64
2021/04/29 04:19:41;;;;;;;12.65;9.73;;;17.20;54.60;;;;;;5015315;28;20022;-64
2021/04/29 04:22:07;;;;;;;11.23;9.15;;;17.50;53.60;;;;;;5015596;28;20080;-64
2021/04/29 04:24:33;;;;;;;12.20;8.57;;;17.80;52.80;;;;;;5018610;28;20030;-64
2021/04/29 04:26:58;;;;;;;10.77;8.20;;;17.90;52.60;;;;;;5014513;28;20033;-64
2021/04/29 04:29:24;;;;;;;11.70;9.27;;;18.00;52.40;;;;;;5029996;28;20100;-64
2021/04/29 04:31:50;;;;;;;10.35;8.90;;;18.10;51.70;;;;;;5034412;28;20041;-66
2021/04/29 04:34:16;;;;;;;10.18;8.40;;;18.00;51.80;;;;;;5028604;28;20030;-64
2021/04/29 04:36:41;;;;;;;9.98;7.95;;;18.00;52.80;;;;;;5014970;28;20022;-64
2021/04/29 04:39:07;;;;;;;9.38;7.75;;;18.20;52.20;;;;;;5015153;28;20075;-64
2021/04/29 04:41:33;;;;;;;9.02;7.68;;;18.50;52.10;;;;;;5014883;28;20050;-64
2021/04/29 04:43:58;;;;;;;9.05;6.90;;;18.70;51.40;;;;;;5014916;28;20022;-66
2021/04/29 04:46:27;;;;;;;9.90;7.75;;;18.70;50.70;;;;;;5014398;28;20041;-65
2021/04/29 04:48:53;;;;;;;9.50;6.90;;;18.50;50.70;;;;;;5014757;28;20049;-64
2021/04/29 04:51:18;;;;;;;8.55;7.50;;;18.20;51.20;;;;;;5014400;28;20104;-64
2021/04/29 04:53:44;;;;;;;8.93;7.25;;;17.80;51.60;;;;;;5016320;28;20025;-66
2021/04/29 04:56:10;;;;;;;7.75;6.63;;;17.30;52.60;;;;;;5015685;28;20131;-64
2021/04/29 04:58:36;;;;;;;8.15;7.05;;;17.10;53.20;;;;;;5013923;28;20018;-64
2021/04/29 05:01:01;;;;;;;7.93;6.63;;;16.90;53.60;;;;;;5028572;28;20025;-64
2021/04/29 05:03:28;;;;;;;9.82;6.55;;;16.80;54.20;;;;;;5029010;28;20025;-64
2021/04/29 05:05:54;;;;;;;9.85;7.00;;;16.80;54.30;;;;;;5012076;28;20026;-64
2021/04/29 05:08:19;;;;;;;9.05;6.90;;;16.70;54.40;;;;;;5012434;28;20393;-66
2021/04/29 05:10:45;;;;;;;8.35;6.45;;;16.60;54.50;;;;;;5012447;28;20520;-64
2021/04/29 05:13:11;;;;;;;10.07;7.65;;;16.30;54.70;;;;;;5011828;28;20026;-64
2021/04/29 05:15:37;;;;;;;7.10;6.35;;;16.00;55.20;;;;;;5011756;28;20022;-64
2021/04/29 05:18:04;;;;;;;8.65;6.13;;;15.70;55.30;;;;;;5011891;28;20029;-64
2021/04/29 05:20:31;;;;;;;8.45;7.43;;;15.40;55.50;;;;;;5013796;28;20213;-64
2021/04/29 05:22:57;;;;;;;9.10;7.80;;;15.10;55.70;;;;;;5013107;28;20057;-64
2021/04/29 05:25:23;;;;;;;8.95;7.43;;;14.80;55.30;;;;;;5013235;28;20037;-64
2021/04/29 05:27:53;;;;;;;9.50;8.23;;;14.60;55.40;;;;;;5013406;28;20022;-64
2021/04/29 05:30:20;;;;;;;10.43;8.13;;;14.20;55.60;;;;;;5015786;28;20108;-65
2021/04/29 05:32:49;;;;;;;11.50;8.88;;;13.90;56.10;;;;;;5030419;28;20037;-58
2021/04/29 05:35:15;;;;;;;9.50;7.55;;;13.60;56.70;;;;;;5031666;28;20381;-59
2021/04/29 05:37:41;;;;;;;9.55;7.88;;;13.30;57.30;;;;;;5021733;28;20462;-61
2021/04/29 05:40:07;;;;;;;8.85;7.78;;;13.10;57.90;;;;;;5023623;28;20024;-57
2021/04/29 05:42:33;;;;;;;8.75;7.53;;;13.00;58.30;;;;;;5027596;28;20112;-59
2021/04/29 05:44:59;;;;;;;9.27;7.50;;;12.80;58.90;;;;;;5030636;28;20120;-59
2021/04/29 05:47:24;;;;;;;8.30;7.45;;;12.70;58.90;;;;;;5035576;28;20025;-58
2021/04/29 05:49:50;;;;;;;8.85;7.30;;;12.60;59.30;;;;;;5035664;28;20040;-59
2021/04/29 05:52:16;;;;;;;8.98;7.63;;;12.50;59.90;;;;;;5033512;28;20049;-58
2021/04/29 05:54:41;;;;;;;11.77;7.60;;;12.40;60.40;;;;;;5034034;28;20037;-58
2021/04/29 05:57:07;;;;;;;9.82;8.05;;;12.40;61.10;;;;;;5022585;28;20021;-62
2021/04/29 05:59:33;;;;;;;9.55;7.57;;;12.40;61.70;;;;;;5034639;28;20030;-63
2021/04/29 06:01:59;;;;;;;9.77;7.75;;;12.30;62.20;;;;;;5025363;28;20017;-63
2021/04/29 06:04:24;;;;;;;10.88;7.60;;;12.30;62.60;;;;;;5033569;28;20017;-65
2021/04/29 06:06:50;;;;;;;10.18;7.00;;;12.30;63.10;;;;;;5031939;28;20055;-65
2021/04/29 06:09:16;;;;;;;8.45;7.00;;;12.20;63.20;;;;;;5019001;28;20056;-65
2021/04/29 06:11:42;;;;;;;10.10;7.55;;;12.30;63.30;;;;;;5026654;28;20037;-65
2021/04/29 06:14:11;;;;;;;7.97;6.75;;;12.20;63.30;;;;;;5019901;28;20381;-63
2021/04/29 06:16:37;;;;;;;8.70;6.70;;;12.20;63.50;;;;;;5019833;28;20033;-62
2021/04/29 06:19:03;;;;;;;9.52;7.13;;;12.20;63.50;;;;;;5024927;28;20029;-63
2021/04/29 06:21:29;;;;;;;8.02;6.30;;;12.10;63.40;;;;;;5023756;28;20099;-65
2021/04/29 06:23:54;;;;;;;8.32;7.07;;;12.10;63.60;;;;;;5023287;28;20026;-63
2021/04/29 06:26:20;;;;;;;9.10;7.70;;;12.10;63.80;;;;;;5021231;28;20472;-63
2021/04/29 06:28:47;;;;;;;8.50;7.00;;;12.00;63.70;;;;;;5003332;28;20033;-63
2021/04/29 06:31:13;;;;;;;8.73;7.20;;;12.10;64.10;;;;;;5010534;28;20436;-63
2021/04/29 06:33:38;;;;;;;8.95;6.88;;;12.10;64.30;;;;;;5014797;28;20044;-65
2021/04/29 06:36:05;;;;;;;7.93;6.53;;;12.10;64.40;;;;;;5017326;28;20084;-65
2021/04/29 06:38:30;;;;;;;9.82;6.47;;;12.20;64.00;;;;;;5017257;28;20049;-62
2021/04/29 06:40:56;;;;;;;7.78;6.65;;;12.20;63.50;;;;;;5017911;28;20072;-61
2021/04/29 06:43:22;;;;;;;7.55;6.28;;;12.20;63.40;;;;;;5024229;28;20067;-65
2021/04/29 06:45:48;;;;;;;8.13;6.53;;;12.20;63.00;;;;;;5021451;28;20545;-64
2021/04/29 06:48:14;;;;;;;7.78;6.50;;;12.30;63.60;;;;;;5019482;28;20034;-62
2021/04/29 06:50:39;;;;;;;8.45;6.95;;;12.40;63.80;;;;;;5019829;28;20036;-61
2021/04/29 06:53:06;;;;;;;9.88;7.50;;;12.40;64.20;;;;;;5014636;28;20041;-62
2021/04/29 06:55:32;;;;;;;9.07;6.30;;;12.50;64.60;;;;;;5014712;28;20057;-62
2021/04/29 06:57:58;;;;;;;7.45;6.07;;;12.50;64.20;;;;;;5017559;28;20034;-60
2021/04/29 07:00:24;;;;;;;6.70;6.00;;;12.60;64.00;;;;;;5014040;28;20474;-63
2021/04/29 07:02:51;;;;;;;6.88;5.85;;;12.60;63.40;;;;;;5014140;28;20049;-62
2021/04/29 07:05:16;;;;;;;7.03;5.68;;;12.60;63.20;;;;;;5016761;28;20452;-63
2021/04/29 07:07:42;;;;;;;7.03;5.57;;;12.70;63.40;;;;;;5016877;28;20029;-63
2021/04/29 07:10:09;;;;;;;7.32;5.82;;;12.70;63.20;;;;;;5019214;28;20029;-62
2021/04/29 07:12:34;;;;;;;8.02;5.95;;;12.70;63.20;;;;;;5019161;28;20100;-63
2021/04/29 07:15:00;;;;;;;6.60;5.32;;;12.70;63.00;;;;;;5021640;28;20584;-63
2021/04/29 07:17:26;;;;;;;6.22;5.30;;;12.70;63.10;;;;;;5012729;28;20052;-62
2021/04/29 07:19:51;;;;;;;6.95;5.15;;;12.80;63.30;;;;;;5019224;28;20033;-62
2021/04/29 07:22:17;;;;;;;5.55;5.03;;;12.80;63.10;;;;;;5019762;28;20028;-63
2021/04/29 07:24:43;;;;;;;6.80;5.32;;;12.80;62.50;;;;;;5018542;28;20030;-63
2021/04/29 07:27:09;;;;;;;6.70;5.82;;;12.80;62.60;;;;;;5016899;28;20053;-64
2021/04/29 07:29:35;;;;;;;6.22;5.22;;;12.80;63.50;;;;;;5021337;28;20116;-64
2021/04/29 07:32:02;;;;;;;7.10;5.28;;;12.90;63.80;;;;;;5021023;28;20029;-63
2021/04/29 07:34:27;;;;;;;5.30;4.80;;;12.90;63.30;;;;;;5019768;28;20029;-63
2021/04/29 07:36:53;;;;;;;7.35;5.22;;;13.00;62.50;;;;;;5018098;28;20448;-63
2021/04/29 07:39:19;;;;;;;6.55;5.60;;;13.00;63.30;;;;;;5020711;28;20378;-62
2021/04/29 07:41:45;;;;;;;6.82;5.78;;;13.10;63.00;;;;;;5016692;28;20033;-63
2021/04/29 07:44:10;;;;;;;6.63;5.28;;;13.10;62.50;;;;;;5016550;28;20036;-63
2021/04/29 07:46:36;;;;;;;8.32;5.93;;;13.20;63.30;;;;;;5019382;28;20035;-63
2021/04/29 07:49:02;;;;;;;5.47;4.97;;;13.20;61.70;;;;;;5020053;28;20033;-63
2021/04/29 07:51:28;;;;;;;7.38;5.13;;;13.30;61.50;;;;;;5016003;28;20053;-61
2021/04/29 07:53:54;;;;;;;7.90;5.88;;;13.40;62.20;;;;;;5017889;28;20033;-64
2021/04/29 07:56:19;;;;;;;6.32;5.70;;;13.50;61.00;;;;;;5019701;28;20040;-64
2021/04/29 07:58:46;;;;;;;7.22;6.00;;;13.60;61.50;;;;;;5018789;28;20038;-65
2021/04/29 08:01:12;;;;;;;7.25;5.63;;;13.60;61.70;;;;;;5012697;28;20052;-64
2021/04/29 08:03:38;;;;;;;7.90;5.43;;;13.70;62.10;;;;;;5013189;28;20067;-64
2021/04/29 08:06:04;;;;;;;8.10;5.53;;;13.70;62.40;;;;;;5017223;28;20056;-66
2021/04/29 08:08:30;;;;;;;7.50;5.68;;;13.80;62.40;;;;;;5013337;28;20057;-63
2021/04/29 08:10:55;;;;;;;7.10;5.53;;;13.80;62.50;;;;;;5012445;28;20044;-63
2021/04/29 08:13:21;;;;;;;7.72;5.20;;;13.80;62.70;;;;;;5016718;28;20388;-63
2021/04/29 08:15:47;;;;;;;6.60;5.88;;;13.90;62.70;;;;;;5015222;28;20032;-63
2021/04/29 08:18:12;;;;;;;6.53;5.28;;;14.00;62.90;;;;;;5004697;28;20030;-61
2021/04/29 08:20:40;;;;;;;7.38;5.90;;;14.10;63.00;;;;;;4998372;28;20030;-61
2021/04/29 08:23:05;;;;;;;8.27;5.22;;;14.20;63.10;;;;;;5011393;28;20029;-61
2021/04/29 08:25:32;;;;;;;5.95;5.20;;;14.30;62.70;;;;;;5018342;28;20469;-63
2021/04/29 08:27:57;;;;;;;5.72;5.10;;;14.30;62.80;;;;;;5020156;28;20481;-63
2021/04/29 08:30:27;;;;;;;5.60;4.75;;;14.40;62.20;;;;;;5017081;28;20038;-61
2021/04/29 08:32:58;;;;;;;5.97;4.32;;;14.50;61.70;;;;;;5018127;28;20044;-62
2021/04/29 08:35:24;;;;;;;5.88;5.22;;;14.50;62.10;;;;;;5018856;28;20029;-63
2021/04/29 08:37:51;;;;;;;5.40;4.70;;;14.50;62.00;;;;;;5017903;28;20133;-63
2021/04/29 08:40:17;;;;;;;5.60;5.10;;;14.60;62.00;;;;;;5016898;28;20457;-61
2021/04/29 08:42:43;;;;;;;8.90;5.40;;;14.50;61.50;;;;;;5005813;28;20030;-63
2021/04/29 08:45:13;;;;;;;6.75;5.32;;;14.50;61.40;;;;;;5010317;28;20044;-62
2021/04/29 08:47:39;;;;;;;5.57;4.95;;;14.50;61.60;;;;;;5016008;28;20452;-63
2021/04/29 08:50:06;;;;;;;7.32;5.47;;;14.40;61.60;;;;;;5017078;28;20125;-63
2021/04/29 08:52:32;;;;;;;5.57;4.57;;;14.30;61.80;;;;;;5018585;28;20046;-64
2021/04/29 08:54:59;;;;;;;6.43;4.93;;;14.20;61.90;;;;;;5018706;28;20410;-62
2021/04/29 08:57:26;;;;;;;7.15;5.68;;;14.10;62.20;;;;;;5019897;28;20026;-63
2021/04/29 08:59:52;;;;;;;6.10;5.13;;;14.10;62.60;;;;;;5008349;28;20025;-61
2021/04/29 09:02:35;;;;;;;7.05;4.88;;;14.10;62.90;;;;;;5015994;28;20792;-62
2021/04/29 09:05:21;;;;;;;6.60;5.18;;;14.10;63.20;;;;;;5013239;28;21669;-61
2021/04/29 09:07:59;;;;;;;7.45;5.10;;;14.00;63.10;;;;;;5013622;28;20025;-61
2021/04/29 09:10:33;;;;;;;6.15;5.15;;;13.90;63.30;;;;;;5015556;28;20032;-61
2021/04/29 09:13:01;;;;;;;6.70;5.40;;;13.80;63.40;;;;;;5016765;28;20036;-63
2021/04/29 09:15:30;;;;;;;6.95;5.38;;;13.70;63.80;;;;;;5015005;28;20034;-59
2021/04/29 09:18:13;;;;;;;6.50;5.20;;;13.60;64.10;;;;;;5016643;28;20112;-60
2021/04/29 09:21:13;;;;;;;6.40;5.13;;;13.40;64.70;;;;;;5018207;28;20124;-59
2021/04/29 09:23:42;;;;;;;7.63;5.57;;;13.40;64.60;;;;;;5001442;28;20073;-60
2021/04/29 09:26:19;;;;;;;7.03;5.43;;;13.30;65.60;;;;;;5020076;28;20037;-60
2021/04/29 09:28:49;;;;;;;8.15;6.05;;;13.30;65.50;;;;;;5014681;28;20053;-59
2021/04/29 09:31:25;;;;;;;8.85;6.57;;;13.30;65.40;;;;;;5016893;28;20037;-60
2021/04/29 09:33:52;;;;;;;9.13;6.07;;;13.30;65.20;;;;;;5007094;28;20374;-61
2021/04/29 09:36:30;;;;;;;7.50;6.70;;;13.30;65.40;;;;;;5020790;28;20886;-62
2021/04/29 09:39:07;;;;;;;7.07;6.38;;;13.20;65.60;;;;;;5011649;28;20416;-61
2021/04/29 09:41:33;;;;;;;8.23;7.43;;;13.20;65.80;;;;;;5017766;28;20037;-60
2021/04/29 09:44:05;;;;;;;11.55;7.60;;;13.20;65.80;;;;;;5017589;28;20041;-61
2021/04/29 09:46:39;;;;;;;10.95;7.60;;;13.10;66.00;;;;;;5015217;28;20029;-61
2021/04/29 09:49:31;;;;;;;8.88;7.70;;;13.10;66.10;;;;;;5014750;28;20436;-62
2021/04/29 09:51:58;;;;;;;9.27;7.55;;;13.10;66.20;;;;;;5014646;28;20080;-61
2021/04/29 09:54:24;;;;;;;10.48;8.25;;;13.00;66.10;;;;;;5019875;28;20065;-61
2021/04/29 09:57:04;;;;;;;10.15;8.15;;;13.00;66.20;;;;;;5014880;28;20127;-59
2021/04/29 09:59:30;;;;;;;9.20;7.90;;;12.90;66.30;;;;;;5015727;28;20029;-62
2021/04/29 10:02:01;;;;;;;12.07;8.43;;;12.90;66.20;;;;;;5018610;28;20072;-60
2021/04/29 10:04:29;;;;;;;10.40;8.80;;;12.90;66.60;;;;;;5013785;28;20074;-61
2021/04/29 10:06:56;;;;;;;9.63;8.05;;;12.80;66.70;;;;;;5014643;28;20030;-62
2021/04/29 10:09:24;;;;;;;10.70;8.25;;;12.80;66.40;;;;;;5011770;28;20073;-62
2021/04/29 10:11:55;;;;;;;10.77;8.05;;;12.80;66.40;;;;;;5015587;28;20032;-62
2021/04/29 10:14:24;;;;;;;11.73;8.30;;;12.70;66.60;;;;;;5021389;28;20041;-63
2021/04/29 10:16:50;;;;;;;9.20;7.68;;;12.70;66.40;;;;;;5011955;28;20832;-62
2021/04/29 10:19:16;;;;;;;11.30;7.80;;;12.70;66.10;;;;;;5001037;28;20068;-61
2021/04/29 10:21:42;;;;;;;10.85;8.90;;;12.70;66.00;;;;;;5021435;28;20465;-62
2021/04/29 10:24:10;;;;;;;10.00;8.02;;;12.70;66.30;;;;;;5023216;28;20098;-62
2021/04/29 10:26:37;;;;;;;8.85;7.00;;;12.60;66.40;;;;;;5023217;28;20125;-62
2021/04/29 10:29:06;;;;;;;9.77;7.15;;;12.60;66.60;;;;;;5022436;28;20037;-62
2021/04/29 10:31:36;;;;;;;8.05;7.18;;;12.60;66.40;;;;;;5025792;28;20087;-62
2021/04/29 10:34:18;;;;;;;7.85;6.35;;;12.60;66.50;;;;;;5025852;28;20041;-62
2021/04/29 10:36:48;;;;;;;8.63;6.45;;;12.70;65.90;;;;;;5017942;28;20030;-62
2021/04/29 10:39:17;;;;;;;9.32;7.25;;;12.70;65.50;;;;;;5017626;28;20056;-62
2021/04/29 10:41:44;;;;;;;7.50;5.85;;;12.60;65.80;;;;;;5016040;28;20848;-61
2021/04/29 10:44:12;;;;;;;7.43;6.22;;;12.70;65.20;;;;;;5021259;28;20068;-62
2021/04/29 10:46:39;;;;;;;7.75;6.22;;;12.70;65.50;;;;;;5020520;28;20497;-61
2021/04/29 10:49:07;;;;;;;7.90;6.75;;;12.70;65.30;;;;;;5020754;28;20038;-62
2021/04/29 10:51:39;;;;;;;8.80;6.85;;;12.80;65.70;;;;;;5015803;28;20662;-62
2021/04/29 10:54:12;;;;;;;10.57;7.88;;;12.80;65.90;;;;;;5019539;28;20135;-62
2021/04/29 10:56:38;;;;;;;8.88;7.25;;;12.90;66.00;;;;;;5017270;28;20123;-62
2021/04/29 10:59:13;;;;;;;8.90;7.45;;;12.90;65.90;;;;;;5019386;28;20053;-62
2021/04/29 11:01:44;;;;;;;11.48;8.40;;;12.90;66.20;;;;;;5017528;28;20172;-63
2021/04/29 11:04:20;;;;;;;8.13;6.78;;;12.80;66.60;;;;;;5017209;28;20029;-62
2021/04/29 11:06:47;;;;;;;9.02;7.32;;;12.90;66.20;;;;;;5013409;28;20033;-59
2021/04/29 11:09:25;;;;;;;8.50;7.60;;;12.80;65.40;;;;;;5020035;28;20033;-62
2021/04/29 11:12:01;;;;;;;8.35;6.32;;;12.80;65.60;;;;;;5015704;28;20029;-61
2021/04/29 11:14:40;;;;;;;8.95;5.53;;;12.80;65.30;;;;;;5023928;28;20033;-60
2021/04/29 11:17:06;;;;;;;7.28;5.72;;;12.80;65.60;;;;;;5020168;28;20168;-60
2021/04/29 11:19:42;;;;;;;6.13;5.28;;;12.90;65.40;;;;;;5023615;28;20725;-60
2021/04/29 11:22:29;;;;;;;8.15;6.20;;;12.90;65.00;;;;;;5020252;28;20075;-58
2021/04/29 11:24:56;;;;;;;6.18;5.57;;;12.90;65.00;;;;;;5023281;28;20454;-60
2021/04/29 11:27:24;;;;;;;7.07;5.88;;;13.00;64.70;;;;;;5017787;28;20493;-59
2021/04/29 11:29:54;;;;;;;7.72;6.22;;;13.00;64.80;;;;;;5012982;28;20038;-60
2021/04/29 11:32:20;;;;;;;9.63;6.40;;;13.00;65.20;;;;;;5005954;28;20029;-60
2021/04/29 11:34:54;;;;;;;6.30;5.63;;;12.90;65.20;;;;;;5011451;28;20473;-61
2021/04/29 11:37:21;;;;;;;7.22;5.40;;;13.00;65.20;;;;;;5010079;28;20033;-61
2021/04/29 11:40:01;;;;;;;6.90;5.88;;;13.00;65.30;;;;;;5016089;28;20112;-61
2021/04/29 11:42:34;;;;;;;7.85;5.30;;;12.90;65.00;;;;;;5011684;28;20018;-60
2021/04/29 11:45:13;;;;;;;7.07;5.70;;;13.00;64.20;;;;;;5017256;28;20014;-59
2021/04/29 11:47:51;;;;;;;6.80;5.40;;;13.00;64.20;;;;;;5017287;28;20017;-60
2021/04/29 11:50:29;;;;;;;6.78;5.22;;;12.90;64.50;;;;;;5016918;28;20053;-61
2021/04/29 11:53:12;;;;;;;8.18;5.43;;;12.90;64.30;;;;;;5015208;28;20046;-61
2021/04/29 11:55:42;;;;;;;5.47;4.90;;;12.90;64.80;;;;;;5014776;28;20091;-60
2021/04/29 11:58:10;;;;;;;4.72;4.10;;;12.90;64.60;;;;;;5015374;28;20029;-60
2021/04/29 12:00:42;;;;;;;5.43;4.88;;;12.90;64.80;;;;;;4998698;28;20029;-60
2021/04/29 12:03:10;;;;;;;5.28;4.78;;;13.00;64.80;;;;;;5019114;28;20440;-60
2021/04/29 12:05:51;;;;;;;5.70;4.72;;;13.00;65.00;;;;;;5010475;28;20060;-61
2021/04/29 12:08:21;;;;;;;5.93;4.03;;;13.00;64.50;;;;;;5015273;28;20767;-61
2021/04/29 12:11:00;;;;;;;6.20;4.38;;;13.00;64.50;;;;;;5011812;28;20033;-61
2021/04/29 12:14:02;;;;;;;5.60;4.70;;;13.00;64.40;;;;;;5014190;28;20170;-61
2021/04/29 12:16:32;;;;;;;8.02;4.50;;;13.00;63.80;;;;;;5017103;28;20358;-59
2021/04/29 12:18:59;;;;;;;5.27;4.10;;;13.00;64.20;;;;;;5000948;28;20124;-59
2021/04/29 12:21:27;;;;;;;4.53;4.05;;;13.00;63.80;;;;;;5016445;28;20275;-60
2021/04/29 12:24:09;;;;;;;4.65;4.10;;;13.00;63.40;;;;;;5012621;28;20050;-61
2021/04/29 12:26:35;;;;;;;5.43;4.35;;;13.00;63.20;;;;;;5012558;28;20112;-58
2021/04/29 12:29:04;;;;;;;5.40;4.53;;;13.00;63.50;;;;;;5015135;28;20512;-59
2021/04/29 12:31:31;;;;;;;5.50;4.43;;;13.00;63.90;;;;;;5012518;28;20509;-57
2021/04/29 12:34:07;;;;;;;6.50;3.70;;;13.00;64.10;;;;;;5013897;28;20036;-60
2021/04/29 12:36:48;;;;;;;5.03;4.15;;;13.00;63.90;;;;;;5012828;28;20036;-59
2021/04/29 12:39:15;;;;;;;4.90;4.32;;;13.00;63.80;;;;;;5015834;28;20053;-60
2021/04/29 12:41:42;;;;;;;4.68;3.60;;;13.10;63.80;;;;;;5014422;28;20029;-59
2021/04/29 12:44:09;;;;;;;4.78;3.88;;;13.10;63.40;;;;;;5010051;28;20037;-60
2021/04/29 12:46:36;;;;;;;4.78;4.00;;;13.20;63.10;;;;;;5012693;28;20044;-60
2021/04/29 12:49:13;;;;;;;4.70;4.10;;;13.20;63.10;;;;;;5012982;28;20037;-61